createdAt,value
2023-05-23T00:02:25.689Z,10.03
2023-05-23T00:04:58.520Z,10.60
2023-05-23T00:07:27.213Z,10.33
2023-05-23T00:09:55.150Z,11.33
2023-05-23T00:12:24.547Z,10.83
2023-05-23T00:14:53.621Z,9.97
2023-05-23T00:17:25.453Z,10.93
2023-05-23T00:19:55.978Z,10.37
2023-05-23T00:22:24.077Z,10.70
2023-05-23T00:24:52.009Z,10.73
2023-05-23T00:27:19.965Z,11.00
2023-05-23T00:29:49.258Z,10.53
2023-05-23T00:32:17.252Z,10.90
2023-05-23T00:34:45.503Z,9.63
2023-05-23T00:37:13.462Z,9.73
2023-05-23T00:39:41.644Z,11.27
2023-05-23T00:42:10.092Z,9.77
2023-05-23T00:44:38.072Z,10.40
2023-05-23T00:47:09.415Z,10.17
2023-05-23T00:49:37.931Z,11.17
2023-05-23T00:52:06.994Z,9.47
2023-05-23T00:54:37.747Z,10.00
2023-05-23T00:57:06.709Z,9.40
2023-05-23T00:59:37.398Z,10.73
2023-05-23T01:02:08.140Z,10.10
2023-05-23T01:04:37.322Z,9.77
2023-05-23T01:07:05.586Z,10.87
2023-05-23T01:09:34.078Z,11.23
2023-05-23T01:12:20.316Z,12.20
2023-05-23T01:15:06.450Z,9.00
2023-05-23T01:17:45.608Z,10.53
2023-05-23T01:20:20.388Z,9.90
2023-05-23T01:23:12.821Z,10.57
2023-05-23T01:26:14.990Z,10.60
2023-05-23T01:28:48.159Z,10.23
2023-05-23T01:31:18.177Z,10.47
2023-05-23T01:33:47.674Z,10.30
2023-05-23T01:36:16.802Z,11.63
2023-05-23T01:38:45.940Z,11.07
2023-05-23T01:41:13.894Z,9.03
2023-05-23T01:43:41.988Z,10.07
2023-05-23T01:46:12.757Z,9.20
2023-05-23T01:48:42.291Z,9.77
2023-05-23T01:51:10.509Z,9.43
2023-05-23T01:53:38.793Z,9.77
2023-05-23T01:56:07.328Z,10.27
2023-05-23T01:58:35.811Z,10.50
2023-05-23T02:01:04.141Z,13.17
2023-05-23T02:03:33.801Z,10.80
2023-05-23T02:06:01.752Z,9.17
2023-05-23T02:08:29.681Z,10.23
2023-05-23T02:10:57.644Z,10.03
2023-05-23T02:13:25.574Z,11.30
2023-05-23T02:15:53.537Z,10.97
2023-05-23T02:18:22.622Z,11.83
2023-05-23T02:20:53.273Z,11.17
2023-05-23T02:23:21.489Z,10.80
2023-05-23T02:25:49.605Z,9.90
2023-05-23T02:28:17.648Z,14.13
2023-05-23T02:30:46.157Z,10.57
2023-05-23T02:33:14.485Z,10.50
2023-05-23T02:35:42.773Z,12.37
2023-05-23T02:38:13.121Z,11.47
2023-05-23T02:40:42.867Z,10.93
2023-05-23T02:43:11.148Z,11.27
2023-05-23T02:45:39.332Z,13.40
2023-05-23T02:48:07.852Z,12.03
2023-05-23T02:50:36.008Z,12.47
2023-05-23T02:53:04.287Z,10.97
2023-05-23T02:55:33.546Z,12.00
2023-05-23T02:58:01.494Z,10.90
2023-05-23T03:00:29.420Z,11.03
2023-05-23T03:02:58.904Z,11.57
2023-05-23T03:05:27.114Z,11.73
2023-05-23T03:07:55.411Z,11.30
2023-05-23T03:10:23.515Z,11.67
2023-05-23T03:12:52.857Z,11.70
2023-05-23T03:15:21.262Z,13.27
2023-05-23T03:17:49.710Z,11.97
2023-05-23T03:20:18.143Z,12.47
2023-05-23T03:22:46.240Z,12.80
2023-05-23T03:25:16.714Z,11.70
2023-05-23T03:27:44.777Z,11.70
2023-05-23T03:30:15.168Z,12.33
2023-05-23T03:32:43.454Z,13.40
2023-05-23T03:35:11.747Z,15.47
2023-05-23T03:37:40.573Z,13.70
2023-05-23T03:40:10.323Z,14.30
2023-05-23T03:42:40.829Z,15.13
2023-05-23T03:45:12.395Z,14.13
2023-05-23T03:47:43.047Z,13.33
2023-05-23T03:50:12.286Z,13.57
2023-05-23T03:52:40.387Z,13.50
2023-05-23T03:55:11.369Z,14.27
2023-05-23T03:57:39.807Z,14.10
2023-05-23T04:00:12.196Z,14.13
2023-05-23T04:02:47.275Z,14.07
2023-05-23T04:05:19.431Z,16.30
2023-05-23T04:07:50.283Z,16.13
2023-05-23T04:10:18.695Z,18.17
2023-05-23T04:12:48.115Z,17.33
2023-05-23T04:15:21.572Z,19.03
2023-05-23T04:18:07.546Z,25.07
2023-05-23T04:20:36.396Z,24.50
2023-05-23T04:23:05.645Z,30.17
2023-05-23T04:25:36.662Z,30.57
2023-05-23T04:28:10.476Z,30.70
2023-05-23T04:30:38.436Z,27.93
2023-05-23T04:33:07.899Z,31.70
2023-05-23T04:35:39.237Z,29.43
2023-05-23T04:38:07.722Z,25.20
2023-05-23T04:40:35.902Z,26.60
2023-05-23T04:43:18.054Z,25.50
2023-05-23T04:45:58.751Z,23.07
2023-05-23T04:48:36.225Z,22.70
2023-05-23T04:51:07.758Z,24.27
2023-05-23T04:53:41.093Z,24.03
2023-05-23T04:56:10.827Z,24.17
2023-05-23T04:58:40.584Z,23.07
2023-05-23T05:01:10.267Z,20.30
2023-05-23T05:03:39.646Z,18.20
2023-05-23T05:06:08.493Z,18.30
2023-05-23T05:08:37.700Z,14.43
2023-05-23T05:11:06.282Z,13.60
2023-05-23T05:13:34.979Z,12.50
2023-05-23T05:16:03.121Z,12.53
2023-05-23T05:18:31.387Z,10.87
2023-05-23T05:21:02.177Z,10.53
2023-05-23T05:23:33.314Z,10.03
2023-05-23T05:26:01.638Z,8.83
2023-05-23T05:28:29.722Z,8.90
2023-05-23T05:30:57.728Z,10.63
2023-05-23T05:33:26.056Z,8.93
2023-05-23T05:36:08.936Z,8.97
2023-05-23T05:38:37.120Z,7.33
2023-05-23T05:41:07.350Z,7.90
2023-05-23T05:43:40.288Z,8.13
2023-05-23T05:46:08.274Z,10.17
2023-05-23T05:48:36.236Z,8.20
2023-05-23T05:51:09.438Z,8.83
2023-05-23T05:53:37.739Z,8.70
2023-05-23T05:56:09.095Z,10.83
2023-05-23T05:58:37.324Z,9.57
2023-05-23T06:01:09.739Z,9.00
2023-05-23T06:03:38.165Z,10.17
2023-05-23T06:06:06.945Z,10.97
2023-05-23T06:08:36.785Z,10.47
2023-05-23T06:11:04.801Z,12.40
2023-05-23T06:13:32.924Z,15.57
2023-05-23T06:16:00.908Z,13.43
2023-05-23T06:18:29.177Z,14.17
2023-05-23T06:20:57.686Z,12.97
2023-05-23T06:23:25.710Z,13.47
2023-05-23T06:25:54.989Z,12.80
2023-05-23T06:28:22.927Z,13.63
2023-05-23T06:30:50.975Z,12.90
2023-05-23T06:33:18.894Z,15.60
2023-05-23T06:35:46.881Z,12.87
2023-05-23T06:38:17.019Z,12.43
2023-05-23T06:40:45.746Z,14.10
2023-05-23T06:43:16.184Z,15.00
2023-05-23T06:45:53.052Z,15.07
2023-05-23T06:48:21.179Z,11.37
2023-05-23T06:50:50.819Z,9.23
2023-05-23T06:53:19.541Z,11.63
2023-05-23T06:55:49.407Z,8.03
2023-05-23T06:58:25.145Z,8.40
2023-05-23T07:00:53.441Z,6.83
2023-05-23T07:03:27.912Z,6.57
2023-05-23T07:06:00.594Z,7.07
2023-05-23T07:08:29.067Z,6.13
2023-05-23T07:11:00.530Z,6.37
2023-05-23T07:13:47.872Z,6.37
2023-05-23T07:16:22.894Z,6.10
2023-05-23T07:18:59.458Z,5.57
2023-05-23T07:21:27.628Z,6.57
2023-05-23T07:23:55.592Z,6.93
2023-05-23T07:26:24.233Z,5.77
2023-05-23T07:28:57.451Z,4.30
2023-05-23T07:31:25.973Z,5.00
2023-05-23T07:33:56.830Z,4.80
2023-05-23T07:36:34.022Z,5.57
2023-05-23T07:39:02.651Z,3.50
2023-05-23T07:41:30.862Z,3.83
2023-05-23T07:44:00.353Z,3.53
2023-05-23T07:46:28.380Z,3.83
2023-05-23T07:48:57.110Z,3.27
2023-05-23T07:51:25.459Z,3.00
2023-05-23T07:53:54.185Z,3.07
2023-05-23T07:56:24.252Z,3.53
2023-05-23T07:58:52.193Z,2.70
2023-05-23T08:01:22.203Z,3.07
2023-05-23T08:04:00.523Z,1.83
2023-05-23T08:07:00.931Z,2.40
2023-05-23T08:09:53.566Z,1.87
2023-05-23T08:12:22.379Z,1.70
2023-05-23T08:14:56.479Z,1.90
2023-05-23T08:17:28.054Z,2.57
2023-05-23T08:19:56.325Z,1.30
2023-05-23T08:22:24.352Z,1.20
2023-05-23T08:24:52.300Z,1.43
2023-05-23T08:27:20.774Z,1.60
2023-05-23T08:29:53.228Z,2.20
2023-05-23T08:32:21.537Z,0.90
2023-05-23T08:34:51.067Z,1.27
2023-05-23T08:37:20.185Z,2.57
2023-05-23T08:39:48.472Z,2.77
2023-05-23T08:42:37.759Z,1.60
2023-05-23T08:45:10.134Z,0.90
2023-05-23T08:47:39.614Z,0.97
2023-05-23T08:50:12.962Z,0.90
2023-05-23T08:52:57.202Z,1.20
2023-05-23T08:55:27.767Z,1.03
2023-05-23T08:57:59.285Z,1.10
2023-05-23T09:00:50.125Z,1.00
2023-05-23T09:03:19.717Z,1.40
2023-05-23T09:05:59.152Z,3.10
2023-05-23T09:08:28.050Z,1.87
2023-05-23T09:10:59.483Z,1.17
2023-05-23T09:13:28.507Z,0.80
2023-05-23T09:16:04.074Z,1.07
2023-05-23T09:18:40.623Z,0.73
2023-05-23T09:21:12.027Z,1.00
2023-05-23T09:23:46.964Z,1.10
2023-05-23T09:26:15.910Z,1.80
2023-05-23T09:28:45.708Z,2.27
2023-05-23T09:31:14.553Z,2.13
2023-05-23T09:33:47.177Z,1.47
2023-05-23T09:36:18.012Z,1.83
2023-05-23T09:38:48.784Z,2.30
2023-05-23T09:41:16.897Z,2.20
2023-05-23T09:43:52.150Z,2.23
2023-05-23T09:46:21.448Z,2.30
2023-05-23T09:48:51.762Z,3.40
2023-05-23T09:51:23.926Z,3.60
2023-05-23T09:53:53.121Z,3.87
2023-05-23T09:56:23.506Z,2.40
2023-05-23T09:58:54.488Z,2.70
2023-05-23T10:01:27.809Z,3.60
2023-05-23T10:03:59.986Z,2.10
2023-05-23T10:06:40.185Z,2.47
2023-05-23T10:09:15.268Z,2.50
2023-05-23T10:12:40.411Z,3.13
2023-05-23T10:15:12.227Z,2.30
2023-05-23T10:17:55.177Z,1.73
2023-05-23T10:20:27.214Z,2.10
2023-05-23T10:22:58.134Z,2.47
2023-05-23T10:25:26.723Z,3.07
2023-05-23T10:27:59.052Z,4.00
2023-05-23T10:30:28.545Z,6.23
2023-05-23T10:32:58.561Z,4.20
2023-05-23T10:35:42.746Z,4.60
2023-05-23T10:38:29.265Z,3.93
2023-05-23T10:41:10.924Z,4.30
2023-05-23T10:43:50.042Z,3.07
2023-05-23T10:46:21.026Z,3.00
2023-05-23T10:48:49.450Z,3.33
2023-05-23T10:51:17.717Z,2.73
2023-05-23T10:53:54.191Z,3.03
2023-05-23T10:56:24.295Z,2.33
2023-05-23T10:58:55.873Z,2.47
2023-05-23T11:01:24.874Z,1.80
2023-05-23T11:03:56.001Z,1.70
2023-05-23T11:06:33.641Z,2.30
2023-05-23T11:09:11.513Z,1.53
2023-05-23T11:12:06.001Z,1.73
2023-05-23T11:14:55.989Z,1.30
2023-05-23T11:17:34.652Z,2.40
2023-05-23T11:20:07.112Z,2.00
2023-05-23T11:22:36.408Z,1.37
2023-05-23T11:25:10.794Z,2.50
2023-05-23T11:27:42.028Z,1.83
2023-05-23T11:30:13.526Z,2.40
2023-05-23T11:32:43.065Z,2.00
2023-05-23T11:35:12.417Z,4.27
2023-05-23T11:37:40.685Z,1.70
2023-05-23T11:40:31.672Z,3.43
2023-05-23T11:43:01.111Z,3.00
2023-05-23T11:45:31.737Z,2.40
2023-05-23T11:48:00.437Z,3.80
2023-05-23T11:50:28.391Z,5.40
2023-05-23T11:52:57.049Z,4.17
2023-05-23T11:55:25.503Z,4.37
2023-05-23T11:57:57.764Z,5.67
2023-05-23T12:00:26.016Z,5.27
2023-05-23T12:02:54.048Z,5.63
2023-05-23T12:05:21.987Z,7.23
2023-05-23T12:07:50.757Z,9.13
2023-05-23T12:10:21.695Z,8.47
2023-05-23T12:12:52.626Z,10.07
2023-05-23T12:15:27.960Z,9.87
2023-05-23T12:17:57.216Z,10.63
2023-05-23T12:20:27.268Z,11.37
2023-05-23T12:22:57.763Z,11.33
2023-05-23T12:25:26.552Z,12.20
2023-05-23T12:27:56.240Z,10.50
2023-05-23T12:30:25.551Z,9.57
2023-05-23T12:32:53.731Z,9.13
2023-05-23T12:35:21.664Z,10.73
2023-05-23T12:37:50.182Z,9.27
2023-05-23T12:40:20.039Z,9.97
2023-05-23T12:42:53.444Z,10.20
2023-05-23T12:45:23.655Z,9.83
2023-05-23T12:47:54.335Z,10.13
2023-05-23T12:50:22.710Z,10.70
2023-05-23T12:52:51.256Z,12.23
2023-05-23T12:55:19.505Z,11.13
2023-05-23T12:57:48.182Z,11.53
2023-05-23T13:00:17.301Z,11.03
2023-05-23T13:02:49.234Z,12.00
2023-05-23T13:05:18.873Z,14.47
2023-05-23T13:07:46.846Z,16.43
2023-05-23T13:10:14.852Z,16.10
2023-05-23T13:12:43.743Z,16.33
2023-05-23T13:15:12.873Z,16.73
2023-05-23T13:17:40.992Z,17.00
2023-05-23T13:20:12.204Z,16.37
2023-05-23T13:22:41.717Z,19.13
2023-05-23T13:25:11.113Z,17.80
2023-05-23T13:27:39.073Z,17.83
2023-05-23T13:30:09.565Z,18.20
2023-05-23T13:32:37.514Z,17.03
2023-05-23T13:35:06.748Z,21.33
2023-05-23T13:37:34.865Z,20.27
2023-05-23T13:40:06.595Z,21.73
2023-05-23T13:42:36.235Z,17.23
2023-05-23T13:45:04.925Z,22.00
2023-05-23T13:47:32.910Z,19.67
2023-05-23T13:50:01.456Z,17.33
2023-05-23T13:52:29.470Z,16.27
2023-05-23T13:54:57.895Z,17.73
2023-05-23T13:57:27.155Z,15.07
2023-05-23T13:59:55.364Z,20.67
2023-05-23T14:02:23.616Z,19.33
2023-05-23T14:04:52.004Z,19.13
2023-05-23T14:07:20.664Z,16.20
2023-05-23T14:09:48.885Z,16.07
2023-05-23T14:12:16.901Z,16.60
2023-05-23T14:14:46.204Z,17.37
2023-05-23T14:17:17.576Z,13.17
2023-05-23T14:19:46.739Z,14.43
2023-05-23T14:22:18.404Z,13.37
2023-05-23T14:24:46.333Z,17.70
2023-05-23T14:27:14.701Z,16.57
2023-05-23T14:29:46.322Z,16.37
2023-05-23T14:32:15.903Z,19.77
2023-05-23T14:34:43.954Z,16.90
2023-05-23T14:37:11.943Z,17.77
2023-05-23T14:39:41.525Z,15.13
2023-05-23T14:42:09.711Z,17.13
2023-05-23T14:44:37.646Z,15.17
2023-05-23T14:47:06.318Z,20.80
2023-05-23T14:49:35.582Z,14.30
2023-05-23T14:52:03.579Z,14.40
2023-05-23T14:54:31.831Z,15.27
2023-05-23T14:57:00.061Z,14.20
2023-05-23T14:59:28.851Z,19.23
2023-05-23T15:01:56.842Z,14.53
2023-05-23T15:04:25.466Z,14.40
2023-05-23T15:06:54.877Z,15.37
2023-05-23T15:09:22.802Z,15.37
2023-05-23T15:11:50.863Z,13.80
2023-05-23T15:14:18.863Z,15.43
2023-05-23T15:16:48.810Z,15.57
2023-05-23T15:19:17.274Z,12.30
2023-05-23T15:24:17.905Z,14.53
2023-05-23T15:26:45.822Z,11.83
2023-05-23T15:29:15.423Z,12.23
2023-05-23T15:31:44.206Z,14.60
2023-05-23T15:34:12.517Z,14.33
2023-05-23T15:36:41.846Z,13.80
2023-05-23T15:39:09.813Z,12.37
2023-05-23T15:41:39.155Z,11.57
2023-05-23T15:44:07.229Z,10.50
2023-05-23T15:46:35.229Z,11.87
2023-05-23T15:49:10.636Z,9.70
2023-05-23T15:51:49.480Z,11.40
2023-05-23T15:54:17.540Z,12.23
2023-05-23T15:56:46.756Z,16.23
2023-05-23T15:59:14.733Z,14.90
2023-05-23T16:01:42.823Z,13.80
2023-05-23T16:04:11.213Z,12.80
2023-05-23T16:06:40.389Z,9.80
2023-05-23T16:09:08.399Z,14.17
2023-05-23T16:11:36.364Z,9.83
2023-05-23T16:14:06.598Z,12.20
2023-05-23T16:16:35.134Z,12.87
2023-05-23T16:19:04.195Z,11.60
2023-05-23T16:21:32.295Z,14.63
2023-05-23T16:24:00.695Z,13.23
2023-05-23T16:26:28.783Z,9.90
2023-05-23T16:28:56.733Z,11.03
2023-05-23T16:31:29.612Z,13.17
2023-05-23T16:33:58.603Z,12.43
2023-05-23T16:36:26.864Z,13.60
2023-05-23T16:38:55.800Z,12.13
2023-05-23T16:41:23.860Z,11.40
2023-05-23T16:43:52.130Z,11.57
2023-05-23T16:46:22.202Z,16.70
2023-05-23T16:48:51.682Z,12.03
2023-05-23T16:51:19.642Z,14.80
2023-05-23T16:53:47.913Z,11.57
2023-05-23T16:56:15.955Z,10.57
2023-05-23T16:58:44.213Z,13.60
2023-05-23T17:01:12.181Z,9.17
2023-05-23T17:03:41.389Z,13.33
2023-05-23T17:06:10.899Z,10.27
2023-05-23T17:08:39.212Z,8.50
2023-05-23T17:11:07.503Z,11.87
2023-05-23T17:13:35.751Z,17.30
2023-05-23T17:16:05.465Z,14.70
2023-05-23T17:18:33.488Z,12.50
2023-05-23T17:21:01.475Z,9.87
2023-05-23T17:23:30.886Z,10.80
2023-05-23T17:25:59.137Z,9.97
2023-05-23T17:28:27.092Z,11.07
2023-05-23T17:30:55.483Z,11.43
2023-05-23T17:33:23.406Z,7.57
2023-05-23T17:35:51.315Z,10.73
2023-05-23T17:38:19.493Z,12.00
2023-05-23T17:40:49.139Z,12.17
2023-05-23T17:43:17.255Z,8.33
2023-05-23T17:45:45.224Z,8.80
2023-05-23T17:48:13.314Z,8.63
2023-05-23T17:50:41.796Z,9.80
2023-05-23T17:53:09.902Z,9.47
2023-05-23T17:55:37.804Z,12.43
2023-05-23T17:58:07.254Z,8.33
2023-05-23T18:00:35.345Z,11.07
2023-05-23T18:03:06.283Z,9.63
2023-05-23T18:05:34.567Z,10.40
2023-05-23T18:08:02.656Z,10.37
2023-05-23T18:10:30.591Z,10.70
2023-05-23T18:12:58.499Z,11.67
2023-05-23T18:15:27.958Z,7.53
2023-05-23T18:17:57.373Z,9.43
2023-05-23T18:20:25.660Z,10.43
2023-05-23T18:22:54.614Z,11.23
2023-05-23T18:25:27.342Z,10.17
2023-05-23T18:27:56.516Z,9.27
2023-05-23T18:30:24.550Z,13.70
2023-05-23T18:32:53.859Z,10.37
2023-05-23T18:35:22.985Z,7.03
2023-05-23T18:37:50.921Z,9.47
2023-05-23T18:40:19.357Z,10.20
2023-05-23T18:42:47.408Z,6.53
2023-05-23T18:45:15.355Z,10.97
2023-05-23T18:47:44.658Z,8.23
2023-05-23T18:50:14.563Z,9.13
2023-05-23T18:52:43.637Z,9.73
2023-05-23T18:55:12.121Z,9.67
2023-05-23T18:57:40.159Z,10.43
2023-05-23T19:00:09.956Z,8.13
2023-05-23T19:02:39.518Z,8.20
2023-05-23T19:05:08.675Z,5.93
2023-05-23T19:07:38.243Z,9.87
2023-05-23T19:10:07.564Z,10.00
2023-05-23T19:12:35.851Z,7.73
2023-05-23T19:15:04.440Z,9.53
2023-05-23T19:17:32.620Z,12.17
2023-05-23T19:20:00.647Z,9.70
2023-05-23T19:22:39.135Z,8.27
2023-05-23T19:25:14.113Z,9.70
2023-05-23T19:27:42.603Z,7.87
2023-05-23T19:30:12.260Z,7.20
2023-05-23T19:32:40.225Z,10.87
2023-05-23T19:35:09.178Z,10.10
2023-05-23T19:37:37.561Z,8.13
2023-05-23T19:40:07.369Z,6.17
2023-05-23T19:42:37.002Z,8.03
2023-05-23T19:45:06.599Z,13.03
2023-05-23T19:47:34.897Z,8.97
2023-05-23T19:50:03.119Z,10.60
2023-05-23T19:52:31.030Z,8.57
2023-05-23T19:55:00.613Z,14.93
2023-05-23T19:57:29.781Z,8.77
2023-05-23T19:59:59.430Z,10.73
2023-05-23T20:02:27.471Z,9.90
2023-05-23T20:04:55.764Z,9.70
2023-05-23T20:07:24.040Z,7.00
2023-05-23T20:09:52.138Z,8.03
2023-05-23T20:12:23.300Z,10.90
2023-05-23T20:14:51.232Z,5.83
2023-05-23T20:17:20.642Z,7.77
2023-05-23T20:19:49.015Z,6.77
2023-05-23T20:22:16.932Z,7.73
2023-05-23T20:24:44.931Z,7.80
2023-05-23T20:27:13.025Z,11.50
2023-05-23T20:29:41.278Z,5.57
2023-05-23T20:32:09.179Z,7.10
2023-05-23T20:34:38.762Z,9.87
2023-05-23T20:37:06.695Z,8.97
2023-05-23T20:39:34.901Z,7.70
2023-05-23T20:42:02.907Z,8.83
2023-05-23T20:44:31.720Z,10.23
2023-05-23T20:46:59.668Z,8.43
2023-05-23T20:49:27.764Z,8.10
2023-05-23T20:51:57.613Z,11.20
2023-05-23T20:54:25.563Z,8.33
2023-05-23T20:56:53.881Z,5.30
2023-05-23T20:59:21.996Z,6.83
2023-05-23T21:01:49.975Z,8.73
2023-05-23T21:04:18.935Z,8.73
2023-05-23T21:06:47.039Z,9.10
2023-05-23T21:09:17.036Z,8.53
2023-05-23T21:11:45.032Z,9.33
2023-05-23T21:14:13.863Z,11.20
2023-05-23T21:16:41.940Z,11.07
2023-05-23T21:19:09.968Z,7.70
2023-05-23T21:21:38.048Z,5.03
2023-05-23T21:24:06.486Z,6.57
2023-05-23T21:26:35.756Z,9.60
2023-05-23T21:29:03.679Z,11.07
2023-05-23T21:31:40.682Z,7.87
2023-05-23T21:34:22.522Z,10.40
2023-05-23T21:36:52.222Z,6.47
2023-05-23T21:39:20.541Z,9.57
2023-05-23T21:41:49.827Z,9.90
2023-05-23T21:44:18.838Z,13.10
2023-05-23T21:46:47.447Z,9.53
2023-05-23T21:49:15.723Z,12.57
2023-05-23T21:51:44.110Z,10.27
2023-05-23T21:54:12.218Z,9.70
2023-05-23T21:56:40.155Z,8.67
2023-05-23T21:59:09.615Z,8.03
2023-05-23T22:01:37.572Z,11.93
2023-05-23T22:04:05.836Z,15.73
2023-05-23T22:06:34.176Z,9.63
2023-05-23T22:09:02.128Z,9.40
2023-05-23T22:11:33.884Z,8.00
2023-05-23T22:14:02.667Z,9.03
2023-05-23T22:16:33.446Z,8.17
2023-05-23T22:19:02.042Z,9.33
2023-05-23T22:21:30.498Z,7.33
2023-05-23T22:23:58.806Z,14.20
2023-05-23T22:26:26.924Z,12.27
2023-05-23T22:28:55.024Z,9.70
2023-05-23T22:31:23.890Z,11.77
2023-05-23T22:33:53.515Z,12.47
2023-05-23T22:36:22.218Z,12.63
2023-05-23T22:38:50.537Z,10.33
2023-05-23T22:41:18.914Z,10.97
2023-05-23T22:43:47.351Z,9.20
2023-05-23T22:46:15.818Z,9.00
2023-05-23T22:48:44.890Z,13.60
2023-05-23T22:51:14.590Z,7.67
2023-05-23T22:53:43.237Z,11.07
2023-05-23T22:56:11.328Z,8.13
2023-05-23T22:58:39.391Z,10.80
2023-05-23T23:01:07.388Z,11.93
2023-05-23T23:03:35.784Z,8.90
2023-05-23T23:06:06.024Z,9.73
2023-05-23T23:08:35.456Z,13.33
2023-05-23T23:11:03.725Z,8.93
2023-05-23T23:13:32.750Z,12.07
2023-05-23T23:16:00.749Z,15.50
2023-05-23T23:18:28.682Z,7.10
2023-05-23T23:20:56.656Z,8.13
2023-05-23T23:23:24.708Z,8.90
2023-05-23T23:25:54.276Z,7.17
2023-05-23T23:28:22.364Z,14.93
2023-05-23T23:30:50.694Z,14.77
2023-05-23T23:33:18.618Z,9.77
2023-05-23T23:35:48.997Z,10.50
2023-05-23T23:38:17.290Z,15.53
2023-05-23T23:40:45.661Z,11.70
2023-05-23T23:43:15.139Z,12.13
2023-05-23T23:45:43.161Z,11.00
2023-05-23T23:48:11.325Z,10.10
2023-05-23T23:50:39.253Z,9.87
2023-05-23T23:53:08.030Z,13.00
2023-05-23T23:55:35.964Z,10.43
2023-05-23T23:58:03.876Z,15.07
